GetGPSは位置情報をもとに「Hakodate, Hokkaido 042-0952, Japan (北緯41度46分31.81秒、東経140度48分56.88秒、位置: Japan, 〒042-0952 Hokkaido, Hakodate, Takamatsuchō, 511 函館空港)」付近のTweet(ツイート)を取得しました。現在地の取得は今すぐ「GetGPS」ボタンをクリック(またはタップ)!

GetGPS [Click or Tap]

translate:
latitude: 41.77550252330288
longitude: 140.81579879120048
links: PLINK  GMAP  OSM  HOME 
popularity:  none,#SB5_SuperboyRoadshow(4)  none,#แคร์รอตของคุณกระต่าย(4)  none,#อุบัติรักข้ามขอบฟ้าep3(4)  Ashburn(4)  none(3)  Ōsaka-shi,笑(2)  Toshima-ku,超絶(2)  Saitama-shi,森川月湖(2)  Utsunomiya-shi(2)  none,#아성다이소_표절논란_공론화(2)  Ashburn,"Money+in+the+Grave"(2)  Ashburn,"WHALIEN+52"(2)  Ashburn,@Dr_Mihalik(2)  Ashburn,@SaveTheTailsInc(2)  Ashburn,#BusanPrinceJimin(2)  Ashburn,Draymond(2)  Beijing(2)  札幌市(2)  Seattle(2)  Higashiosaka(1)  Kobe,@sbtwymn(1)  Ōsaka-shi,@RailwayandTaiko(1)  Ōsaka-shi,雨模様☔️花粉(1)  Ōsaka-shi(1) 
函館空港   函館市   北海道   半袖   ポロシャツ   滑走路   後悔   仕事    
@rjch_metar
@31th_tube
rjch_metar
RJCH METAR @rjch_metar
RJCH 260100Z 23006KT 9999 FEW015 SCT030 BKN040 20/17 Q1013 (4分前)
rjch_metar
RJCH METAR @rjch_metar
RJCH 260000Z 22006KT 9999 FEW010 SCT030 BKN040 20/17 Q1013 (34分前)
31th_tube
Daisuke @31th_tube
蝦夷から江戸へ帰りまする (@ 函館空港 in 函館市, 北海道) https://t.co/p8dHu5LheO https://t.co/bpSTsndR4g (1時間前)
rjch_metar
RJCH METAR @rjch_metar
RJCH 252300Z 23004KT 210V280 9999 FEW007 SCT025 BKN040 19/17 Q1014 (2時間前)
rjch_metar
RJCH METAR @rjch_metar
RJCH 252200Z 24003KT 210V280 9999 FEW005 SCT007 BKN015 18/17 Q1014 (2時間前)
rjch_metar
RJCH METAR @rjch_metar
RJCH 252110Z VRB02KT 9999 FEW005 SCT008 BKN012 17/16 Q1014 RMK 1ST005 3ST008 7ST012 A2996 (4時間前)
rjch_metar
RJCH METAR @rjch_metar
RJCH 251710Z 2518/2700 03005KT 9999 FEW006 BKN015 TEMPO 2518/2600 FEW003 BKN006 BECMG 2522/2600 22014KT BECMG 2612/2615 01005KT (7時間前)
rjch_metar
RJCH METAR @rjch_metar
RJCH 251109Z 2512/2618 24006KT 9999 FEW008 BKN015 TEMPO 2518/2600 2000 BR FEW003 BKN005 (8時間前)
rjch_metar
RJCH METAR @rjch_metar
RJCH 251100Z 36003KT 290V050 9999 FEW020 17/16 Q1016 (14時間前)
rjch_metar
RJCH METAR @rjch_metar
RJCH 251000Z 27005KT 220V350 9999 FEW020 18/16 Q1015 (14時間前)
rjch_metar
RJCH METAR @rjch_metar
RJCH 250900Z 23007KT 9999 FEW020 19/17 Q1015 (16時間前)
rjch_metar
RJCH METAR @rjch_metar
RJCH 250800Z 21005KT 160V260 9999 FEW020 20/17 Q1015 (16時間前)
rjch_metar
RJCH METAR @rjch_metar
RJCH 250700Z 15004KT 100V180 9999 FEW030 21/18 Q1015 (18時間前)
rjch_metar
RJCH METAR @rjch_metar
RJCH 250600Z 14005KT 100V180 9999 FEW030 SCT040 20/17 Q1015 (18時間前)
rjch_metar
RJCH METAR @rjch_metar
RJCH 250500Z 16005KT 9999 FEW030 21/17 Q1016 (20時間前)
rjch_metar
RJCH METAR @rjch_metar
RJCH 250400Z 16005KT 120V230 9999 FEW030 19/16 Q1016 (20時間前)
rjch_metar
RJCH METAR @rjch_metar
RJCH 250300Z 17005KT 140V210 9999 FEW030 19/16 Q1016 (22時間前)
rjch_metar
RJCH METAR @rjch_metar
RJCH 250200Z 17006KT 140V210 9999 FEW030 18/15 Q1016 (22時間前)
rjch_metar
RJCH METAR @rjch_metar
RJCH 250100Z 18006KT 150V220 9999 FEW030 18/14 Q1016 (1日前)
rjch_metar
RJCH METAR @rjch_metar
RJCH 250000Z 20007KT 9999 FEW030 SCT/// 18/14 Q1016 (1日前)
rjch_metar
RJCH METAR @rjch_metar
RJCH 242300Z 22005KT 190V250 9999 FEW025 SCT/// 17/14 Q1016 (1日前)
rjch_metar
RJCH METAR @rjch_metar
RJCH 242200Z 30004KT 260V360 9999 FEW006 SCT012 17/13 Q1016 (1日前)
rjch_metar
RJCH METAR @rjch_metar
RJCH 242110Z 35003KT 290V040 9999 FEW006 SCT010 BKN/// 15/13 Q1016 RMK 1ST006 3ST010 A3003 (1日前)
rjch_metar
RJCH METAR @rjch_metar
RJCH 241715Z (cont.) BR FEW003 BKN005 (1日前)
rjch_metar
RJCH METAR @rjch_metar
RJCH 241715Z 2418/2600 19006KT 9999 FEW006 BKN015 BECMG 2506/2509 23008KT TEMPO 2512/2515 FEW005 BKN008 TEMPO 2515/2600 2000 (cont.) (1日前)
trends: 北海道(73388) Steamサマーセール(17394) ガイルくん(11432) Portal(64035) テレ東音楽祭(33212) Steamセール(19504) 熱帯低気圧(15418) 令和初の台風発生(10094) Etika(889198) #メンテの日なのでssを貼る(42260) kimono(15483) 読売新聞(18550) オランダ(18006) 

Japan >  Hokkaido >  Hakodate

your IP: 3.83.236.51

©2019 PRNDC.COM

トップに戻る